Highlands, North Carolina
Current Conditions -  °F | °C
As of 3:35 PM on Saturday 20 Dec 2014 (Local Time) from KTOC Reporting Station
Overcast Overcast  
Wind Chill: 44°   Ceiling: 500
Heat Index: 44°   Visibility: 7mi
Dew Point: 43°   Wind: 3mph
Humidity: 95%   Direction: 70°ENE
Pressure: 30.17"   Gusts: NA
Location:  35.05°N, 83.2°W
Report Text: KTOC 202035Z AUTO 07003KT 7SM OVC005 07/06 A3017 RMK AO2 T00680060
Loading
Personal Weather Stations






























Interactive Weather Map New forecast layout! Learn more

10-Day Weather Forecast

Advertisements
Track Severe Weather on mobile